createdAt,value
2023-05-19T00:01:21.205Z,99029.50
2023-05-19T00:06:33.219Z,99019.69
2023-05-19T00:11:36.744Z,99012.72
2023-05-19T00:16:39.046Z,99008.91
2023-05-19T00:21:40.670Z,99006.72
2023-05-19T00:26:42.235Z,99005.72
2023-05-19T00:31:43.965Z,99013.59
2023-05-19T00:36:45.546Z,99018.25
2023-05-19T00:41:47.367Z,99015.69
2023-05-19T00:46:49.002Z,99017.22
2023-05-19T00:51:50.673Z,99003.78
2023-05-19T00:56:53.203Z,99009.13
2023-05-19T01:01:54.928Z,99007.50
2023-05-19T01:06:56.873Z,99007.69
2023-05-19T01:11:59.349Z,99014.44
2023-05-19T01:17:09.985Z,99001.97
2023-05-19T01:22:31.030Z,99003.19
2023-05-19T01:27:41.378Z,99001.31
2023-05-19T01:32:45.555Z,98998.63
2023-05-19T01:37:47.634Z,99004.34
2023-05-19T01:42:50.491Z,99008.34
2023-05-19T01:47:55.661Z,99001.41
2023-05-19T01:52:57.977Z,99007.09
2023-05-19T01:58:14.693Z,99003.59
2023-05-19T02:03:38.574Z,99003.59
2023-05-19T02:09:02.184Z,99004.28
2023-05-19T02:14:20.405Z,98996.66
2023-05-19T02:19:29.492Z,98989.13
2023-05-19T02:24:31.269Z,98995.03
2023-05-19T02:29:32.909Z,98980.94
2023-05-19T02:34:34.479Z,98992.38
2023-05-19T02:39:36.101Z,98985.69
2023-05-19T02:44:37.835Z,98983.34
2023-05-19T02:49:39.899Z,98981.88
2023-05-19T02:54:41.592Z,98982.44
2023-05-19T02:59:43.268Z,98979.31
2023-05-19T03:04:45.655Z,98977.25
2023-05-19T03:09:47.331Z,98977.59
2023-05-19T03:14:48.966Z,98984.34
2023-05-19T03:19:51.262Z,98987.81
2023-05-19T03:24:54.321Z,98983.88
2023-05-19T03:29:55.957Z,98990.44
2023-05-19T03:34:57.731Z,98986.09
2023-05-19T03:39:59.842Z,98984.94
2023-05-19T03:45:01.463Z,98983.88
2023-05-19T03:50:03.201Z,98984.72
2023-05-19T03:55:05.549Z,98989.00
2023-05-19T04:00:08.320Z,98990.44
2023-05-19T04:05:10.850Z,99001.31
2023-05-19T04:10:13.546Z,99003.00
2023-05-19T04:15:15.823Z,99003.00
2023-05-19T04:20:17.428Z,99026.22
2023-05-19T04:25:20.196Z,99019.00
2023-05-19T04:30:22.691Z,99036.34
2023-05-19T04:35:24.775Z,99032.78
2023-05-19T04:40:26.343Z,99034.00
2023-05-19T04:45:28.202Z,99040.31
2023-05-19T04:50:31.154Z,99041.38
2023-05-19T04:55:33.032Z,99043.56
2023-05-19T05:00:35.951Z,99045.34
2023-05-19T05:05:37.684Z,99048.97
2023-05-19T05:10:39.273Z,99046.09
2023-05-19T05:15:41.094Z,99054.94
2023-05-19T05:20:43.643Z,99052.50
2023-05-19T05:25:47.434Z,99052.03
2023-05-19T05:30:49.380Z,99061.75
2023-05-19T05:35:51.137Z,99050.25
2023-05-19T05:40:52.751Z,99055.56
2023-05-19T05:45:54.340Z,99059.97
2023-05-19T05:50:57.955Z,99067.66
2023-05-19T05:55:59.990Z,99069.81
2023-05-19T06:01:02.743Z,99070.31
2023-05-19T06:06:04.776Z,99078.53
2023-05-19T06:11:08.917Z,99080.75
2023-05-19T06:16:10.768Z,99076.25
2023-05-19T06:21:13.437Z,99077.66
2023-05-19T06:26:15.437Z,99084.75
2023-05-19T06:31:17.086Z,99088.28
2023-05-19T06:36:18.791Z,99091.47
2023-05-19T06:41:21.690Z,99084.69
2023-05-19T06:46:23.298Z,99082.22
2023-05-19T06:51:24.968Z,99081.94
2023-05-19T06:56:26.634Z,99082.19
2023-05-19T07:01:30.351Z,99069.19
2023-05-19T07:06:32.034Z,99071.69
2023-05-19T07:11:33.592Z,99076.63
2023-05-19T07:16:35.177Z,99079.94
2023-05-19T07:21:36.798Z,99077.13
2023-05-19T07:26:39.800Z,99069.78
2023-05-19T07:31:42.797Z,99067.03
2023-05-19T07:36:44.424Z,99065.31
2023-05-19T07:41:52.625Z,99062.63
2023-05-19T07:46:54.893Z,99067.28
2023-05-19T07:51:57.075Z,99061.28
2023-05-19T07:56:59.752Z,99068.16
2023-05-19T08:02:01.510Z,99065.78
2023-05-19T08:07:03.968Z,99062.75
2023-05-19T08:12:05.968Z,99076.47
2023-05-19T08:17:07.700Z,99073.53
2023-05-19T08:22:09.345Z,99072.09
2023-05-19T08:27:10.932Z,99073.41
2023-05-19T08:32:13.492Z,99071.00
2023-05-19T08:37:15.594Z,99069.09
2023-05-19T08:42:17.269Z,99060.13
2023-05-19T08:47:19.873Z,99057.38
2023-05-19T08:52:42.011Z,99054.53
2023-05-19T08:57:43.972Z,99049.31
2023-05-19T09:02:59.656Z,99052.44
2023-05-19T09:08:07.901Z,99044.03
2023-05-19T09:13:09.620Z,99046.25
2023-05-19T09:18:13.108Z,99042.22
2023-05-19T09:23:16.811Z,99042.13
2023-05-19T09:28:26.120Z,99040.66
2023-05-19T09:33:28.696Z,99044.38
2023-05-19T09:38:30.387Z,99035.22
2023-05-19T09:43:36.639Z,99037.63
2023-05-19T09:48:38.342Z,99024.41
2023-05-19T09:53:39.963Z,99016.94
2023-05-19T09:58:45.668Z,99020.47
2023-05-19T10:03:47.515Z,99022.16
2023-05-19T10:08:50.357Z,99025.72
2023-05-19T10:13:52.296Z,99025.56
2023-05-19T10:18:57.398Z,99024.31
2023-05-19T10:23:59.044Z,99017.16
2023-05-19T10:29:01.964Z,99007.75
2023-05-19T10:34:22.330Z,99018.00
2023-05-19T10:39:30.049Z,99014.13
2023-05-19T10:45:05.258Z,99013.41
2023-05-19T10:50:07.856Z,99006.97
2023-05-19T10:55:17.817Z,99005.78
2023-05-19T11:00:31.316Z,99003.34
2023-05-19T11:05:36.811Z,99001.44
2023-05-19T11:10:39.256Z,99000.78
2023-05-19T11:15:42.954Z,98995.19
2023-05-19T11:20:55.541Z,98991.78
2023-05-19T11:25:57.475Z,98981.28
2023-05-19T11:31:01.286Z,98991.13
2023-05-19T11:36:03.106Z,98986.44
2023-05-19T11:41:05.070Z,98993.03
2023-05-19T11:46:06.791Z,98989.19
2023-05-19T11:51:08.466Z,98986.53
2023-05-19T11:56:11.772Z,98981.06
2023-05-19T12:01:13.772Z,98981.03
2023-05-19T12:06:17.448Z,98975.56
2023-05-19T12:11:20.131Z,98966.38
2023-05-19T12:16:22.310Z,98971.34
2023-05-19T12:21:24.079Z,98973.16
2023-05-19T12:26:37.360Z,98966.34
2023-05-19T12:31:39.717Z,98966.44
2023-05-19T12:36:41.635Z,98965.25
2023-05-19T12:41:45.570Z,98971.06
2023-05-19T12:46:51.927Z,98960.63
2023-05-19T12:51:54.123Z,98950.53
2023-05-19T12:56:57.755Z,98952.59
2023-05-19T13:01:59.536Z,98944.56
2023-05-19T13:07:01.818Z,98940.66
2023-05-19T13:12:04.767Z,98949.75
2023-05-19T13:17:06.503Z,98937.63
2023-05-19T13:22:08.281Z,98933.03
2023-05-19T13:27:10.014Z,98932.28
2023-05-19T13:32:11.603Z,98925.00
2023-05-19T13:37:13.265Z,98922.31
2023-05-19T13:42:14.980Z,98911.59
2023-05-19T13:47:16.858Z,98915.50
2023-05-19T13:52:20.729Z,98915.50
2023-05-19T13:57:28.319Z,98902.19
2023-05-19T14:02:30.475Z,98897.91
2023-05-19T14:07:34.769Z,98889.66
2023-05-19T14:12:47.822Z,98896.94
2023-05-19T14:17:53.780Z,98893.03
2023-05-19T14:22:56.555Z,98894.25
2023-05-19T14:27:58.207Z,98896.94
2023-05-19T14:32:59.963Z,98908.97
2023-05-19T14:38:01.660Z,98908.59
2023-05-19T14:43:03.387Z,98904.97
2023-05-19T14:48:05.600Z,98910.28
2023-05-19T14:53:07.428Z,98909.09
2023-05-19T14:58:23.715Z,98912.25
2023-05-19T15:03:29.715Z,98908.84
2023-05-19T15:08:31.443Z,98912.03
2023-05-19T15:13:33.020Z,98909.44
2023-05-19T15:18:34.629Z,98898.09
2023-05-19T15:23:36.537Z,98898.84
2023-05-19T15:28:38.095Z,98897.97
2023-05-19T15:33:39.735Z,98896.13
2023-05-19T15:38:41.281Z,98891.28
2023-05-19T15:43:42.938Z,98900.22
2023-05-19T15:48:44.548Z,98891.72
2023-05-19T15:53:46.168Z,98895.34
2023-05-19T15:58:47.889Z,98877.59
2023-05-19T16:03:49.535Z,98866.25
2023-05-19T16:08:51.147Z,98864.53
2023-05-19T16:13:52.858Z,98856.84
2023-05-19T16:18:54.482Z,98853.66
2023-05-19T16:23:56.029Z,98860.91
2023-05-19T16:28:57.595Z,98858.38
2023-05-19T16:33:59.225Z,98855.81
2023-05-19T16:39:00.902Z,98840.38
2023-05-19T16:44:02.519Z,98846.78
2023-05-19T16:49:04.145Z,98842.94
2023-05-19T16:54:05.785Z,98844.44
2023-05-19T16:59:09.244Z,98831.06
2023-05-19T17:04:10.832Z,98836.53
2023-05-19T17:09:12.772Z,98838.47
2023-05-19T17:14:14.490Z,98844.00
2023-05-19T17:19:16.383Z,98851.41
2023-05-19T17:24:17.991Z,98837.91
2023-05-19T17:29:19.555Z,98844.47
2023-05-19T17:34:21.303Z,98842.03
2023-05-19T17:39:22.950Z,98848.53
2023-05-19T17:44:24.782Z,98839.63
2023-05-19T17:49:26.465Z,98828.63
2023-05-19T17:54:28.337Z,98833.88
2023-05-19T17:59:30.668Z,98843.97
2023-05-19T18:04:32.985Z,98846.63
2023-05-19T18:09:38.614Z,98842.00
2023-05-19T18:14:40.497Z,98843.69
2023-05-19T18:19:42.516Z,98846.25
2023-05-19T18:24:44.676Z,98854.53
2023-05-19T18:29:47.002Z,98857.44
2023-05-19T18:34:49.339Z,98860.31
2023-05-19T18:39:51.637Z,98864.94
2023-05-19T18:44:53.918Z,98873.31
2023-05-19T18:49:56.330Z,98877.09
2023-05-19T18:55:00.196Z,98881.13
2023-05-19T19:00:02.732Z,98886.91
2023-05-19T19:05:09.927Z,98876.56
2023-05-19T19:10:12.448Z,98885.22
2023-05-19T19:15:14.794Z,98885.13
2023-05-19T19:20:17.224Z,98880.81
2023-05-19T19:25:21.223Z,98893.81
2023-05-19T19:30:26.041Z,98899.50
2023-05-19T19:35:28.346Z,98905.50
2023-05-19T19:40:31.002Z,98902.94
2023-05-19T19:45:35.302Z,98906.25
2023-05-19T19:50:37.707Z,98922.50
2023-05-19T19:55:41.074Z,98917.25
2023-05-19T20:00:43.379Z,98911.16
2023-05-19T20:05:45.790Z,98917.31
2023-05-19T20:10:49.844Z,98917.31
2023-05-19T20:15:52.139Z,98925.22
2023-05-19T20:20:54.472Z,98919.56
2023-05-19T20:26:10.707Z,98929.72
2023-05-19T20:31:15.175Z,98933.25
2023-05-19T20:36:17.417Z,98931.00
2023-05-19T20:41:19.957Z,98931.75
2023-05-19T20:46:22.545Z,98922.03
2023-05-19T20:51:25.761Z,98927.28
2023-05-19T20:56:27.746Z,98928.22
2023-05-19T21:01:30.047Z,98915.94
2023-05-19T21:06:31.839Z,98915.50
2023-05-19T21:11:34.245Z,98922.69
2023-05-19T21:16:38.841Z,98912.22
2023-05-19T21:21:42.852Z,98912.88
2023-05-19T21:26:44.459Z,98902.81
2023-05-19T21:31:46.074Z,98898.19
2023-05-19T21:36:48.181Z,98901.06
2023-05-19T21:41:51.484Z,98907.31
2023-05-19T21:46:53.200Z,98903.91
2023-05-19T21:51:54.934Z,98910.53
2023-05-19T21:56:56.596Z,98896.41
2023-05-19T22:01:58.656Z,98889.75
2023-05-19T22:07:00.561Z,98886.53
2023-05-19T22:18:27.615Z,98885.03
2023-05-19T22:23:29.159Z,98884.00
2023-05-19T22:28:30.674Z,98880.78
2023-05-19T22:33:33.217Z,98885.81
2023-05-19T22:38:34.689Z,98885.72
2023-05-19T22:43:36.170Z,98884.44
2023-05-19T22:48:37.680Z,98888.38
2023-05-19T22:53:39.309Z,98894.72
2023-05-19T22:58:40.848Z,98891.50
2023-05-19T23:03:43.220Z,98872.03
2023-05-19T23:08:46.882Z,98869.25
2023-05-19T23:13:48.366Z,98865.31
2023-05-19T23:18:49.938Z,98857.69
2023-05-19T23:23:51.555Z,98857.31
2023-05-19T23:28:53.073Z,98849.47
2023-05-19T23:33:54.587Z,98848.84
2023-05-19T23:38:56.130Z,98850.97
2023-05-19T23:43:57.711Z,98844.69
2023-05-19T23:48:59.249Z,98860.06
2023-05-19T23:54:00.847Z,98830.75
2023-05-19T23:59:02.366Z,98834.63
